Time;durP1;ratioP1;P1;durP2;ratioP2;P2;SDS_P1;SDS_P2;PMS_P1;PMS_P2;Temp;Humidity;BMP_temperature;BMP_pressure;BME280_temperature;BME280_humidity;BME280_pressure;Samples;Min_cycle;Max_cycle;Signal;HPM_P1;HPM_P2
2022/02/03 00:00:19;;;;;;;5.50;2.08;;;;;;;11.34;60.58;100700.42;1969824;73;21073;-59
2022/02/03 00:02:50;;;;;;;3.58;1.42;;;;;;;11.37;59.98;100685.80;1968300;73;21556;-58
2022/02/03 00:05:20;;;;;;;3.22;1.72;;;;;;;11.42;59.19;100632.86;1968121;73;21450;-58
2022/02/03 00:08:00;;;;;;;4.97;2.10;;;;;;;11.47;58.80;100669.99;1968349;73;21010;-57
2022/02/03 00:24:20;;;;;;;3.42;1.98;;;;;;;11.60;58.25;100668.99;1970012;73;21043;-58
2022/02/03 00:26:49;;;;;;;4.70;1.90;;;;;;;11.67;58.16;100673.52;1969797;73;21019;-57
2022/02/03 00:29:37;;;;;;;5.17;1.82;;;;;;;11.71;56.32;100665.41;1968184;73;20984;-59
2022/02/03 00:32:06;;;;;;;5.37;2.30;;;;;;;11.76;57.08;100643.61;1965957;73;21130;-57
2022/02/03 00:34:41;;;;;;;6.30;1.95;;;;;;;11.79;55.08;100636.04;1968292;73;21011;-57
2022/02/03 00:37:09;;;;;;;6.67;2.30;;;;;;;11.84;56.02;100634.05;1968344;73;21015;-57
2022/02/03 00:48:22;;;;;;;9.05;2.33;;;;;;;11.61;57.69;100644.79;1952105;73;21006;-58
2022/02/03 00:50:48;;;;;;;8.70;2.05;;;;;;;11.56;58.95;100648.94;1922849;74;21024;-57
2022/02/03 00:53:19;;;;;;;6.65;2.35;;;;;;;11.44;59.45;100635.00;1889852;75;21104;-57
2022/02/03 00:55:50;;;;;;;3.92;2.12;;;;;;;11.32;59.88;100621.41;1959498;73;21076;-57
2022/02/03 00:58:20;;;;;;;4.25;1.85;;;;;;;11.25;60.72;100627.89;1959429;73;21530;-57
2022/02/03 01:00:52;;;;;;;5.15;2.67;;;;;;;11.19;60.81;100622.44;1945153;73;21092;-58
2022/02/03 01:03:24;;;;;;;5.83;2.00;;;;;;;11.13;61.08;100620.52;1918411;75;21006;-57
2022/02/03 01:05:55;;;;;;;6.20;2.70;;;;;;;11.06;61.77;100623.02;1918359;75;21065;-58
2022/02/03 01:08:27;;;;;;;5.97;2.90;;;;;;;11.02;62.59;100614.38;1918513;75;21546;-57
2022/02/03 01:11:15;;;;;;;5.15;2.30;;;;;;;10.93;62.97;100614.77;1918382;75;21512;-57
2022/02/03 01:13:54;;;;;;;3.50;1.60;;;;;;;10.91;63.11;100611.36;1916578;75;21063;-57
2022/02/03 01:43:34;;;;;;;8.68;2.45;;;;;;;10.45;66.18;100581.67;1959603;73;21042;-58
2022/02/03 01:46:11;;;;;;;5.03;2.27;;;;;;;10.38;66.65;100579.30;1904226;75;21517;-60
2022/02/03 01:53:59;;;;;;;6.45;2.58;;;;;;;10.29;67.37;100592.80;1841483;78;21034;-61
2022/02/03 01:56:50;;;;;;;4.47;2.33;;;;;;;10.28;67.29;100597.66;1892471;76;21013;-59
2022/02/03 01:59:24;;;;;;;5.67;1.90;;;;;;;10.23;66.77;100593.88;1892327;76;21551;-59
2022/02/03 02:02:01;;;;;;;4.80;2.02;;;;;;;10.22;67.28;100578.17;1841408;78;21081;-60
2022/02/03 02:04:35;;;;;;;10.60;2.52;;;;;;;10.24;67.34;100578.97;1892585;76;21029;-60
2022/02/03 02:07:30;;;;;;;6.08;2.20;;;;;;;10.26;67.28;100574.49;1891814;76;21533;-60
2022/02/03 02:10:24;;;;;;;6.53;1.70;;;;;;;10.31;67.17;100572.58;1856850;77;21140;-60
2022/02/03 02:12:57;;;;;;;7.50;2.50;;;;;;;10.46;64.57;100580.73;1837404;77;21054;-59
2022/02/03 02:38:12;;;;;;;6.50;1.70;;;;;;;10.70;65.67;100577.11;1822359;78;21490;-58
2022/02/03 02:41:00;;;;;;;8.48;2.25;;;;;;;10.80;64.41;100576.24;1806916;79;21194;-60
2022/02/03 02:43:34;;;;;;;6.67;2.40;;;;;;;10.93;63.30;100558.14;1799315;79;21231;-60
2022/02/03 02:46:05;;;;;;;2.67;1.62;;;;;;;11.02;63.57;100573.55;1807259;79;21493;-59
2022/02/03 02:48:55;;;;;;;5.47;2.47;;;;;;;11.17;59.77;100573.33;1807097;79;21082;-59
2022/02/03 02:51:31;;;;;;;3.60;1.72;;;;;;;11.33;60.83;100561.66;1806508;79;21133;-60
2022/02/03 03:01:30;;;;;;;5.65;2.27;;;;;;;11.76;56.00;100547.33;1858085;77;21100;-61
2022/02/03 03:35:35;;;;;;;5.75;2.33;;;;;;;11.92;53.85;100534.78;1858012;77;21041;-57
2022/02/03 03:38:00;;;;;;;5.03;1.82;;;;;;;11.92;53.98;100519.80;1877447;76;21018;-57
2022/02/03 03:40:32;;;;;;;7.28;2.35;;;;;;;11.89;54.68;100527.82;1891512;76;21174;-58
2022/02/03 03:43:06;;;;;;;4.53;2.05;;;;;;;11.88;53.74;100518.69;1891547;76;21549;-57
2022/02/03 03:45:38;;;;;;;5.83;2.87;;;;;;;11.87;53.96;100511.21;1891469;76;21159;-58
2022/02/03 03:48:07;;;;;;;3.62;2.15;;;;;;;11.86;54.20;100516.56;1891652;76;21122;-58
2022/02/03 03:50:39;;;;;;;4.33;2.10;;;;;;;11.79;54.38;100515.54;1891530;76;21105;-58
2022/02/03 03:53:14;;;;;;;8.45;2.65;;;;;;;11.76;53.83;100525.38;1891501;76;21066;-57
2022/02/03 03:55:54;;;;;;;6.90;2.15;;;;;;;11.73;55.01;100522.44;1891243;76;21009;-57
2022/02/03 03:59:03;;;;;;;5.83;2.40;;;;;;;11.66;54.75;100514.42;1890374;76;21058;-57
2022/02/03 04:39:26;;;;;;;6.87;2.10;;;;;;;11.83;52.57;100540.47;1785573;80;21141;-61
2022/02/03 04:51:14;;;;;;;;;;;;;;;11.96;51.28;100540.30;1870507;76;21026;-61
2022/02/03 05:01:14;;;;;;;8.08;2.65;;;;;;;12.02;51.53;100533.40;1856190;77;21058;-59
2022/02/03 05:05:50;;;;;;;4.20;1.70;;;;;;;11.89;52.06;100539.69;1855411;77;21132;-61
2022/02/03 05:08:36;;;;;;;6.37;2.12;;;;;;;11.85;52.44;100563.20;1854135;77;21006;-58
2022/02/03 05:11:35;;;;;;;5.05;2.25;;;;;;;11.78;52.72;100548.14;1853769;77;21066;-59
2022/02/03 05:25:53;;;;;;;7.95;2.45;;;;;;;11.59;53.36;100562.63;1856157;77;21038;-59
2022/02/03 05:48:51;;;;;;;6.60;2.60;;;;;;;11.71;54.27;100568.26;1856332;77;21481;-59
2022/02/03 06:02:36;;;;;;;5.33;2.77;;;;;;;11.80;54.63;100573.10;1874236;76;21029;-59
2022/02/03 06:08:18;;;;;;;9.45;2.72;;;;;;;11.88;55.08;100573.62;1874271;76;21088;-59
2022/02/03 06:13:38;;;;;;;5.78;2.17;;;;;;;12.02;54.70;100565.53;1874229;76;21480;-59
2022/02/03 06:15:21;;;;;;;7.20;2.50;;;;;;;12.10;54.70;100566.89;1862288;76;21134;-59
2022/02/03 06:23:44;;;;;;;8.15;2.20;;;;;;;12.54;51.96;100582.78;1874460;76;21021;-59
2022/02/03 06:28:48;;;;;;;4.12;2.15;;;;;;;12.83;52.55;100581.80;1874267;76;21184;-59
2022/02/03 06:31:16;;;;;;;4.65;2.55;;;;;;;13.01;52.04;100579.53;1874219;76;21053;-59
2022/02/03 06:33:45;;;;;;;8.83;2.27;;;;;;;13.17;52.12;100574.31;1874340;76;21045;-59
2022/02/03 06:36:14;;;;;;;7.92;2.42;;;;;;;13.24;51.32;100571.73;1874189;76;21629;-60
2022/02/03 06:45:46;;;;;;;7.15;2.20;;;;;;;14.63;48.00;100573.38;1874311;76;21069;-61
2022/02/03 06:48:16;;;;;;;3.83;2.08;;;;;;;15.16;46.99;100567.11;1873482;76;21037;-61
2022/02/03 06:50:53;;;;;;;2.87;1.92;;;;;;;15.54;45.32;100571.38;1873669;76;21050;-61
2022/02/03 06:53:19;;;;;;;4.67;1.95;;;;;;;15.88;45.46;100572.41;1873440;76;21107;-61
2022/02/03 06:55:58;;;;;;;5.40;2.25;;;;;;;16.15;45.16;100565.80;1874441;76;21076;-61
2022/02/03 06:58:25;;;;;;;;;;;;;;;16.35;44.78;100557.85;1875952;76;21069;-61
2022/02/03 07:01:05;;;;;;;7.22;2.30;;;;;;;16.46;43.08;100570.44;1873800;76;20168;-61
2022/02/03 07:03:33;;;;;;;9.43;2.33;;;;;;;16.85;43.55;100559.43;1873369;76;21045;-61
2022/02/03 07:05:59;;;;;;;7.15;2.35;;;;;;;17.15;42.89;100571.08;1874115;76;21066;-61
2022/02/03 07:08:30;;;;;;;4.37;1.90;;;;;;;17.52;42.35;100552.08;1874461;76;21560;-61
2022/02/03 07:11:00;;;;;;;5.00;1.92;;;;;;;17.91;41.65;100565.33;1874338;76;21045;-60
2022/02/03 07:13:29;;;;;;;5.58;2.40;;;;;;;18.00;40.99;100563.33;1874350;76;21068;-61
2022/02/03 07:15:58;;;;;;;5.53;2.08;;;;;;;18.38;40.75;100556.96;1874265;76;21468;-61
2022/02/03 07:18:28;;;;;;;4.25;2.17;;;;;;;18.85;40.37;100561.89;1874314;76;21061;-61
2022/02/03 07:20:57;;;;;;;9.30;2.35;;;;;;;19.23;38.89;100565.22;1874458;76;21021;-61
2022/02/03 07:23:26;;;;;;;6.50;2.08;;;;;;;19.38;37.38;100561.33;1874333;76;21057;-60
2022/02/03 07:25:55;;;;;;;3.95;2.05;;;;;;;19.48;37.96;100536.95;1874320;76;21559;-61
2022/02/03 07:28:23;;;;;;;7.70;2.40;;;;;;;19.63;36.71;100544.22;1874248;76;21102;-61
2022/02/03 07:30:52;;;;;;;7.67;1.95;;;;;;;19.93;36.87;100549.91;1874372;76;21041;-61
2022/02/03 07:33:21;;;;;;;11.68;2.77;;;;;;;20.33;37.64;100551.48;1874361;76;21113;-61
2022/02/03 07:35:50;;;;;;;6.75;1.80;;;;;;;20.37;35.93;100554.27;1874348;76;21505;-61
2022/02/03 07:38:23;;;;;;;5.17;1.82;;;;;;;19.95;36.03;100549.30;1874557;76;21005;-60
2022/02/03 07:40:51;;;;;;;4.60;2.12;;;;;;;19.48;36.98;100556.97;1874448;76;21530;-61
2022/02/03 07:43:21;;;;;;;5.20;1.87;;;;;;;18.58;38.31;100561.29;1874340;76;21093;-61
2022/02/03 07:45:50;;;;;;;8.70;2.30;;;;;;;17.59;38.92;100568.44;1874433;76;21045;-61
2022/02/03 07:48:22;;;;;;;4.65;1.80;;;;;;;16.57;40.51;100548.81;1874364;76;21054;-61
2022/02/03 07:50:50;;;;;;;5.47;2.10;;;;;;;15.81;42.36;100564.84;1874352;76;21476;-61
2022/02/03 07:53:19;;;;;;;7.35;2.37;;;;;;;15.31;43.40;100594.05;1874277;76;21492;-61
2022/02/03 07:55:48;;;;;;;4.45;2.33;;;;;;;14.87;44.43;100568.41;1866457;76;21215;-61
2022/02/03 07:58:16;;;;;;;6.42;2.35;;;;;;;14.63;45.39;100586.62;1852917;77;21564;-61
2022/02/03 08:00:45;;;;;;;6.83;2.37;;;;;;;14.52;46.18;100589.02;1852958;77;21183;-61
2022/02/03 08:03:15;;;;;;;4.87;2.37;;;;;;;14.41;46.79;100610.81;1852964;77;21022;-61
2022/02/03 08:05:51;;;;;;;10.23;1.98;;;;;;;14.35;47.17;100598.78;1852925;77;21077;-61
2022/02/03 08:08:31;;;;;;;11.05;2.72;;;;;;;14.28;47.53;100598.27;1852044;77;21132;-61
2022/02/03 08:10:56;;;;;;;7.47;2.15;;;;;;;14.30;47.85;100598.18;1850820;77;21035;-61
2022/02/03 08:13:27;;;;;;;3.30;2.25;;;;;;;14.60;47.92;100603.53;1852389;77;21120;-61
2022/02/03 08:16:00;;;;;;;8.03;3.15;;;;;;;14.93;47.65;100602.50;1852218;77;21042;-61
2022/02/03 08:18:22;;;;;;;5.78;2.65;;;;;;;15.09;47.42;100605.55;1851595;77;21062;-62
2022/02/03 08:20:58;;;;;;;9.35;3.15;;;;;;;15.10;47.72;100607.27;1852934;77;21003;-61
2022/02/03 08:26:07;;;;;;;8.13;3.17;;;;;;;14.84;48.22;100607.02;1852940;77;21050;-61
2022/02/03 08:31:07;;;;;;;8.95;2.27;;;;;;;14.48;46.40;100586.53;1852994;77;21177;-61
2022/02/03 08:33:25;;;;;;;8.55;3.00;;;;;;;14.34;46.52;100612.95;1849854;77;21116;-61
2022/02/03 08:35:53;;;;;;;9.40;2.60;;;;;;;14.31;47.22;100617.56;1852930;77;21026;-61
2022/02/03 08:38:34;;;;;;;9.33;2.77;;;;;;;14.19;47.05;100610.70;1852949;77;21575;-61
2022/02/03 08:43:24;;;;;;;5.53;2.50;;;;;;;13.93;48.55;100623.22;1852911;77;21116;-61
2022/02/03 08:45:53;;;;;;;11.90;4.28;;;;;;;13.82;49.38;100623.33;1853026;77;21038;-61
2022/02/03 08:48:21;;;;;;;10.20;3.92;;;;;;;13.76;50.35;100631.61;1852940;77;21111;-61
2022/02/03 08:50:50;;;;;;;12.98;4.03;;;;;;;13.58;51.20;100640.53;1852938;77;21077;-61
2022/02/03 08:53:34;;;;;;;13.25;2.87;;;;;;;13.53;51.98;100638.59;1853059;77;21124;-61
2022/02/03 09:40:13;;;;;;;9.00;3.05;;;;;;;18.26;48.18;100634.69;1852848;77;21103;-63
2022/02/03 09:50:18;;;;;;;8.35;2.92;;;;;;;18.03;48.88;100624.36;1853094;77;21066;-61
2022/02/03 09:50:48;;;;;;;5.87;2.98;;;;;;;19.01;47.20;100614.06;1852779;77;21046;-61
2022/02/03 10:01:08;;;;;;;11.80;3.67;;;;;;;20.37;45.38;100587.69;1852828;77;21082;-61
2022/02/03 10:03:22;;;;;;;8.53;2.83;;;;;;;20.96;44.53;100589.02;1843889;77;21054;-61
2022/02/03 10:06:06;;;;;;;7.85;2.60;;;;;;;21.27;43.63;100582.87;1852939;77;21563;-61
2022/02/03 10:08:28;;;;;;;5.45;1.95;;;;;;;20.67;44.36;100586.63;1851196;77;21136;-61
2022/02/03 10:11:17;;;;;;;7.37;2.35;;;;;;;19.78;45.35;100589.41;1852971;77;21046;-63
2022/02/03 10:13:52;;;;;;;10.70;2.92;;;;;;;18.95;46.46;100598.53;1852900;77;21180;-61
2022/02/03 10:16:23;;;;;;;4.75;1.95;;;;;;;18.35;47.26;100590.98;1852397;77;21575;-61
2022/02/03 10:19:09;;;;;;;4.87;2.37;;;;;;;17.78;47.81;100596.42;1852827;76;21559;-61
2022/02/03 10:21:37;;;;;;;9.05;2.10;;;;;;;17.16;49.03;100595.41;1852584;77;21120;-61
2022/02/03 10:24:08;;;;;;;7.62;2.20;;;;;;;16.75;49.77;100597.73;1853007;77;21426;-61
2022/02/03 10:26:47;;;;;;;16.85;3.37;;;;;;;16.68;49.99;100595.11;1852979;77;21042;-61
2022/02/03 10:29:21;;;;;;;7.10;2.10;;;;;;;16.53;50.35;100595.17;1853019;77;21504;-61
2022/02/03 10:31:50;;;;;;;9.05;3.20;;;;;;;16.48;50.08;100583.98;1852914;77;21461;-61
2022/02/03 10:34:26;;;;;;;10.78;2.62;;;;;;;16.34;50.21;100590.67;1853031;77;21539;-61
2022/02/03 10:37:03;;;;;;;6.83;2.67;;;;;;;16.30;50.49;100583.86;1852718;77;21042;-61
2022/02/03 10:45:38;;;;;;;6.42;1.40;;;;;;;15.94;51.57;100582.66;1852963;77;21070;-61
2022/02/03 10:51:07;;;;;;;7.25;2.30;;;;;;;15.59;51.89;100575.09;1852883;77;21030;-61
2022/02/03 10:54:08;;;;;;;6.20;1.82;;;;;;;15.66;51.74;100573.76;1850903;77;21069;-61
2022/02/03 10:56:40;;;;;;;7.72;1.85;;;;;;;15.68;51.78;100578.48;1849153;77;21042;-61
2022/02/03 11:01:46;;;;;;;5.70;2.08;;;;;;;15.76;52.32;100568.26;1853057;77;21235;-61
2022/02/03 11:04:37;;;;;;;6.03;2.45;;;;;;;15.60;52.40;100555.55;1851021;77;21117;-61
2022/02/03 11:07:03;;;;;;;7.65;2.27;;;;;;;15.34;52.47;100567.30;1848392;77;21046;-61
2022/02/03 11:09:41;;;;;;;4.92;1.98;;;;;;;15.21;52.78;100563.71;1851127;77;21125;-62
2022/02/03 11:12:01;;;;;;;8.80;2.65;;;;;;;14.86;53.21;100568.02;1850898;77;21102;-61
2022/02/03 11:14:31;;;;;;;7.05;2.37;;;;;;;14.79;53.87;100566.67;1853039;77;21094;-61
2022/02/03 11:17:02;;;;;;;14.03;2.85;;;;;;;14.71;54.22;100560.98;1852966;77;21575;-61
2022/02/03 11:19:33;;;;;;;5.03;2.30;;;;;;;14.54;54.23;100557.50;1852940;77;21112;-61
2022/02/03 11:22:08;;;;;;;7.28;2.10;;;;;;;14.34;54.62;100556.48;1852869;77;21038;-61
2022/02/03 11:24:39;;;;;;;5.97;2.12;;;;;;;14.23;54.91;100555.29;1852723;77;21023;-61
2022/02/03 11:27:25;;;;;;;16.62;2.75;;;;;;;14.14;54.96;100557.14;1852462;77;21050;-61
2022/02/03 11:31:11;;;;;;;12.05;3.17;;;;;;;14.10;55.12;100555.61;1851042;76;21031;-61
2022/02/03 11:33:06;;;;;;;6.87;2.15;;;;;;;14.14;55.18;100557.62;1839486;77;21041;-61
2022/02/03 11:44:32;;;;;;;7.28;2.42;;;;;;;14.01;55.65;100557.45;1852979;77;21023;-61
2022/02/03 11:47:15;;;;;;;16.33;2.37;;;;;;;13.96;55.83;100562.15;1848803;77;21046;-61
2022/02/03 12:12:51;;;;;;;8.20;2.70;;;;;;;13.54;54.12;100541.09;1840268;77;21164;-61
2022/02/03 12:20:48;;;;;;;16.85;3.62;;;;;;;13.53;54.61;100516.91;1852831;77;21097;-61
2022/02/03 12:26:31;;;;;;;11.85;2.65;;;;;;;13.54;54.98;100502.73;1852928;77;21042;-61
2022/02/03 12:29:00;;;;;;;10.03;3.27;;;;;;;13.47;54.90;100500.91;1851247;77;21230;-62
2022/02/03 12:37:00;;;;;;;11.08;2.77;;;;;;;13.35;54.83;100487.87;1852967;77;21086;-61
2022/02/03 12:39:25;;;;;;;12.85;3.10;;;;;;;13.29;55.07;100492.15;1851490;77;21124;-61
2022/02/03 12:42:04;;;;;;;14.85;2.85;;;;;;;13.28;55.39;100494.42;1851472;77;21022;-61
2022/02/03 12:44:35;;;;;;;17.42;6.33;;;;;;;13.24;55.18;100498.15;1852775;77;21042;-61
2022/02/03 12:47:05;;;;;;;22.30;3.33;;;;;;;13.24;55.61;100491.54;1852678;77;21046;-61
2022/02/03 12:49:38;;;;;;;27.37;3.42;;;;;;;13.22;55.84;100497.38;1852827;77;21062;-61
2022/02/03 12:52:30;;;;;;;8.48;3.08;;;;;;;13.24;55.98;100491.54;1852943;77;21103;-61
2022/02/03 12:54:58;;;;;;;17.32;3.05;;;;;;;13.23;56.03;100492.49;1853047;77;21036;-61
2022/02/03 12:57:37;;;;;;;31.50;4.25;;;;;;;13.23;56.26;100495.14;1852943;77;21078;-61
2022/02/03 13:00:18;;;;;;;19.37;3.47;;;;;;;13.23;56.28;100500.42;1855364;77;21943;-61
2022/02/03 13:02:58;;;;;;;20.12;4.28;;;;;;;13.21;56.49;100489.08;1856038;77;21136;-61
2022/02/03 13:05:30;;;;;;;16.07;2.90;;;;;;;13.19;56.40;100489.63;1856336;77;21102;-61
2022/02/03 13:08:00;;;;;;;14.60;2.98;;;;;;;13.19;56.65;100494.92;1856202;77;21141;-61
2022/02/03 13:10:33;;;;;;;7.00;2.70;;;;;;;13.19;56.74;100497.56;1856125;77;21069;-62
2022/02/03 13:13:20;;;;;;;15.43;3.77;;;;;;;13.16;56.82;100492.44;1856138;77;21151;-61
2022/02/03 13:15:45;;;;;;;17.62;3.30;;;;;;;13.13;56.87;100496.08;1855509;77;21438;-61
2022/02/03 13:18:21;;;;;;;9.58;2.85;;;;;;;13.13;56.93;100498.27;1856231;77;21540;-61
2022/02/03 13:20:52;;;;;;;10.55;2.62;;;;;;;13.11;57.06;100501.47;1855132;77;21066;-61
2022/02/03 13:23:21;;;;;;;9.63;3.87;;;;;;;13.06;57.08;100503.97;1855081;77;21532;-61
2022/02/03 13:26:07;;;;;;;13.45;3.58;;;;;;;13.01;57.13;100497.59;1855861;77;21602;-62
2022/02/03 13:28:40;;;;;;;10.43;4.00;;;;;;;12.98;57.38;100496.42;1855574;77;21046;-61
2022/02/03 13:31:22;;;;;;;9.20;3.40;;;;;;;13.00;57.44;100498.52;1854953;77;21050;-63
2022/02/03 13:34:16;;;;;;;15.53;3.62;;;;;;;13.01;57.49;100507.32;1855657;77;21038;-61
2022/02/03 13:36:34;;;;;;;21.40;4.10;;;;;;;13.04;57.50;100508.02;1849971;77;21041;-61
2022/02/03 13:39:13;;;;;;;9.10;4.08;;;;;;;13.04;57.56;100508.02;1856206;77;21034;-61
2022/02/03 13:41:43;;;;;;;15.20;4.20;;;;;;;13.04;57.64;100511.98;1855711;77;21132;-61
2022/02/03 13:44:17;;;;;;;9.28;3.72;;;;;;;13.02;57.48;100520.91;1856010;77;21089;-61
2022/02/03 13:46:43;;;;;;;11.80;4.60;;;;;;;13.00;57.59;100515.70;1854992;77;21014;-61
2022/02/03 13:49:18;;;;;;;14.65;4.05;;;;;;;12.97;57.78;100522.97;1856276;77;21417;-61
2022/02/03 13:52:04;;;;;;;12.63;4.58;;;;;;;12.88;57.95;100526.45;1856195;77;21519;-61
2022/02/03 13:54:59;;;;;;;22.37;4.55;;;;;;;12.79;58.24;100516.84;1856140;77;21090;-61
2022/02/03 14:20:05;;;;;;;12.18;5.22;;;;;;;11.92;60.02;100522.44;1874337;76;21080;-62
2022/02/03 14:22:11;;;;;;;13.85;3.80;;;;;;;11.82;60.40;100522.91;1870267;76;21070;-61
2022/02/03 14:27:28;;;;;;;11.45;5.10;;;;;;;11.69;60.94;100534.07;1874134;76;21627;-62
2022/02/03 14:30:13;;;;;;;20.17;6.78;;;;;;;11.64;61.22;100528.59;1874127;76;21053;-61
2022/02/03 14:32:31;;;;;;;15.98;4.85;;;;;;;11.61;61.43;100530.92;1870828;76;21119;-61
2022/02/03 14:34:59;;;;;;;12.10;4.17;;;;;;;11.59;61.60;100538.05;1874524;76;21495;-61
2022/02/03 14:42:42;;;;;;;13.53;4.47;;;;;;;11.47;62.17;100540.80;1874126;76;21049;-61
2022/02/03 14:45:14;;;;;;;11.68;4.83;;;;;;;11.46;62.27;100548.30;1874225;76;21085;-61
2022/02/03 14:47:42;;;;;;;15.70;5.90;;;;;;;11.43;62.37;100542.31;1873792;76;21084;-61
2022/02/03 14:50:13;;;;;;;20.85;6.37;;;;;;;11.39;62.69;100549.51;1874122;76;21123;-61
2022/02/03 14:52:56;;;;;;;19.95;7.45;;;;;;;11.32;62.87;100551.55;1874154;76;21104;-61
2022/02/03 14:58:04;;;;;;;19.20;6.42;;;;;;;11.25;63.12;100570.35;1874205;76;21108;-61
2022/02/03 15:00:33;;;;;;;18.60;5.33;;;;;;;11.23;63.19;100570.41;1865697;76;21136;-61
2022/02/03 15:03:02;;;;;;;22.27;6.67;;;;;;;11.21;63.29;100572.27;1852570;77;21050;-61
2022/02/03 15:05:34;;;;;;;16.87;5.80;;;;;;;11.19;63.43;100566.21;1852884;77;21065;-61
2022/02/03 15:08:15;;;;;;;15.90;5.28;;;;;;;11.15;63.59;100565.48;1852697;77;21062;-62
2022/02/03 15:15:53;;;;;;;18.75;4.50;;;;;;;11.08;63.95;100569.31;1852873;77;21073;-61
2022/02/03 15:18:21;;;;;;;15.32;4.55;;;;;;;11.04;64.11;100570.38;1852875;77;21089;-61
2022/02/03 15:20:50;;;;;;;11.80;4.40;;;;;;;11.01;64.29;100563.91;1852928;77;21042;-61
2022/02/03 15:23:19;;;;;;;15.35;4.47;;;;;;;10.99;64.48;100571.91;1853044;77;21108;-61
2022/02/03 15:25:48;;;;;;;17.10;5.03;;;;;;;10.98;64.62;100570.66;1852887;77;21091;-60
2022/02/03 15:28:18;;;;;;;11.53;4.17;;;;;;;10.96;64.72;100569.40;1852834;77;21121;-61
2022/02/03 15:30:48;;;;;;;17.42;5.50;;;;;;;10.95;64.77;100570.78;1852954;77;21135;-61
2022/02/03 15:33:25;;;;;;;11.35;4.70;;;;;;;10.93;64.95;100576.11;1852950;77;21046;-61
2022/02/03 15:35:50;;;;;;;18.65;5.33;;;;;;;10.90;65.18;100580.21;1851454;77;21038;-61
2022/02/03 15:38:20;;;;;;;21.97;5.70;;;;;;;10.91;65.12;100592.91;1852707;77;21118;-62
2022/02/03 15:40:50;;;;;;;17.23;5.53;;;;;;;10.87;65.27;100583.44;1852916;77;21112;-62
2022/02/03 15:45:57;;;;;;;16.67;5.40;;;;;;;10.83;65.42;100587.98;1852996;77;21125;-62
2022/02/03 15:48:39;;;;;;;16.27;5.30;;;;;;;10.84;65.52;100590.14;1852492;77;21050;-61
2022/02/03 16:13:11;;;;;;;20.25;6.22;;;;;;;10.65;66.00;100581.70;1852876;77;21018;-61
2022/02/03 16:17:43;;;;;;;17.00;6.40;;;;;;;10.27;66.97;100594.61;1891410;76;21095;-63
2022/02/03 16:20:18;;;;;;;13.98;6.25;;;;;;;10.16;67.25;100596.81;1891102;76;21208;-59
2022/02/03 16:23:03;;;;;;;17.95;8.08;;;;;;;9.88;67.84;100603.16;1890841;76;21014;-62
2022/02/03 16:50:23;;;;;;;9.48;5.25;;;;;;;8.48;70.13;100632.59;1894788;76;21026;-59
2022/02/03 16:52:48;;;;;;;7.58;4.87;;;;;;;8.23;70.37;100646.03;1894805;76;21062;-61
2022/02/03 16:55:15;;;;;;;7.03;4.40;;;;;;;8.22;70.21;100645.16;1893176;76;21022;-62
2022/02/03 16:57:42;;;;;;;10.10;4.20;;;;;;;8.14;70.29;100645.00;1894427;76;21140;-61
2022/02/03 17:00:14;;;;;;;5.20;3.65;;;;;;;8.01;70.52;100645.36;1894848;76;21481;-62
2022/02/03 17:02:42;;;;;;;4.90;3.00;;;;;;;7.92;70.71;100649.57;1901621;74;21132;-62
2022/02/03 17:05:12;;;;;;;5.65;3.08;;;;;;;7.81;70.93;100656.43;1904543;74;21085;-62
2022/02/03 17:07:41;;;;;;;6.60;3.65;;;;;;;7.69;71.05;100662.89;1904350;75;21033;-61
2022/02/03 17:10:10;;;;;;;5.75;3.55;;;;;;;7.69;70.96;100662.89;1904129;75;21087;-62
2022/02/03 17:12:38;;;;;;;7.87;3.83;;;;;;;7.66;70.99;100664.28;1904215;75;21424;-62
2022/02/03 17:15:08;;;;;;;4.22;2.70;;;;;;;7.66;70.99;100672.61;1904223;75;21460;-62
2022/02/03 17:17:37;;;;;;;5.40;2.83;;;;;;;7.59;70.97;100678.45;1904335;75;21029;-59
2022/02/03 17:20:06;;;;;;;4.72;3.12;;;;;;;7.46;71.16;100666.14;1904204;75;21008;-59
2022/02/03 17:22:41;;;;;;;4.00;3.02;;;;;;;7.34;71.34;100682.17;1904436;75;21029;-60
2022/02/03 17:25:12;;;;;;;3.50;2.58;;;;;;;7.36;71.39;100686.95;1903400;75;21061;-60
2022/02/03 17:27:43;;;;;;;3.22;2.12;;;;;;;7.38;71.31;100677.72;1903322;75;21041;-64
2022/02/03 17:30:14;;;;;;;2.58;2.25;;;;;;;7.37;71.30;100681.26;1903181;75;21041;-66
2022/02/03 18:30:07;;;;;;;3.20;2.02;;;;;;;6.96;71.41;100656.55;1868487;77;21025;-60
2022/02/03 18:32:37;;;;;;;3.55;1.95;;;;;;;6.96;71.29;100659.17;1865475;77;21034;-58
2022/02/03 18:51:12;;;;;;;2.15;1.45;;;;;;;6.63;71.86;100655.64;1870546;77;21044;-57
2022/02/03 18:56:23;;;;;;;4.50;2.42;;;;;;;6.50;72.27;100653.30;1869394;76;21053;-57
2022/02/03 18:58:48;;;;;;;2.87;1.98;;;;;;;6.56;72.10;100653.14;1865477;77;21123;-60
2022/02/03 19:15:26;;;;;;;2.85;1.72;;;;;;;6.36;72.70;100660.60;1814413;78;21128;-61
2022/02/03 19:28:55;;;;;;;3.05;1.45;;;;;;;6.49;72.35;100668.60;1868670;77;21054;-60
2022/02/03 20:05:39;;;;;;;3.80;2.40;;;;;;;6.28;72.62;100682.16;1758474;81;21194;-61
2022/02/03 20:11:38;;;;;;;3.20;2.00;;;;;;;6.38;72.61;100682.34;1772180;80;21541;-61
2022/02/03 20:14:12;;;;;;;3.58;1.98;;;;;;;6.42;72.56;100679.22;1815227;78;21164;-60
2022/02/03 20:20:07;;;;;;;2.50;1.70;;;;;;;6.36;72.49;100690.67;1832477;78;21544;-63
2022/02/03 20:26:17;;;;;;;2.98;1.70;;;;;;;6.16;72.85;100695.91;1832497;78;21556;-64
2022/02/03 20:32:29;;;;;;;3.40;1.75;;;;;;;6.01;72.98;100704.06;1823171;78;21624;-64
2022/02/03 20:38:38;;;;;;;3.37;1.87;;;;;;;5.98;73.13;100710.68;1870277;77;21113;-63
2022/02/03 20:44:50;;;;;;;4.67;2.00;;;;;;;5.90;73.26;100712.54;1870349;77;21120;-63
2022/02/03 20:50:49;;;;;;;3.80;2.05;;;;;;;5.78;73.42;100716.27;1870424;75;21077;-64
2022/02/03 20:56:59;;;;;;;5.10;2.33;;;;;;;5.76;73.33;100715.44;1902919;75;21112;-66
2022/02/03 21:03:18;;;;;;;3.02;2.10;;;;;;;5.56;73.60;100726.27;1902864;75;21137;-62
2022/02/03 21:09:19;;;;;;;3.40;1.87;;;;;;;5.49;73.87;100725.95;1902898;75;21128;-63
2022/02/03 21:18:47;;;;;;;4.00;2.22;;;;;;;5.52;73.56;100727.22;1856252;76;21124;-60
2022/02/03 21:25:03;;;;;;;5.20;3.30;;;;;;;5.43;73.60;100727.39;1847149;78;21058;-60
2022/02/03 21:31:08;;;;;;;3.30;2.52;;;;;;;5.29;73.77;100710.64;1816801;79;21565;-60
2022/02/03 21:37:18;;;;;;;4.05;2.58;;;;;;;5.11;74.20;100705.29;1816587;79;21074;-61
2022/02/03 21:43:27;;;;;;;5.00;2.92;;;;;;;5.21;74.00;100712.09;1816915;79;21588;-60
2022/02/03 21:49:37;;;;;;;7.03;2.87;;;;;;;5.24;73.98;100726.41;1816849;79;21063;-61
2022/02/03 21:55:48;;;;;;;3.87;2.33;;;;;;;5.28;73.94;100740.27;1816898;79;21571;-62
2022/02/03 22:01:58;;;;;;;5.78;2.20;;;;;;;5.16;74.05;100744.78;1816833;79;21501;-62
2022/02/03 22:08:07;;;;;;;3.67;2.08;;;;;;;5.12;73.96;100736.59;1816964;79;21050;-61
2022/02/03 22:14:17;;;;;;;4.33;2.70;;;;;;;4.81;74.73;100736.22;1816840;78;21562;-62
2022/02/03 22:19:52;;;;;;;;;;;;;;;4.79;74.71;100733.62;1827691;78;21077;-63
2022/02/03 22:54:09;;;;;;;3.22;1.77;;;;;;;4.49;75.19;100750.59;1844740;78;21142;-62
2022/02/03 23:00:23;;;;;;;3.72;1.50;;;;;;;4.33;75.19;100759.50;1844780;78;21126;-62
2022/02/03 23:06:33;;;;;;;2.98;1.80;;;;;;;4.30;74.88;100765.63;1844714;78;21163;-63
2022/02/03 23:12:56;;;;;;;3.22;1.70;;;;;;;3.98;74.90;100774.67;1844751;78;21166;-61
2022/02/03 23:18:30;;;;;;;2.62;1.52;;;;;;;3.75;74.75;100787.11;1848508;76;21600;-63
2022/02/03 23:24:32;;;;;;;3.80;2.05;;;;;;;3.65;74.66;100791.52;1848032;78;21141;-62
2022/02/03 23:30:45;;;;;;;2.85;1.75;;;;;;;3.41;74.95;100798.70;1816897;79;21066;-61
2022/02/03 23:36:53;;;;;;;4.28;1.62;;;;;;;3.48;74.65;100802.09;1817112;79;21106;-62
2022/02/03 23:43:45;;;;;;;4.40;2.30;;;;;;;3.45;74.25;100796.49;1817004;79;21183;-62
2022/02/03 23:49:55;;;;;;;4.30;2.25;;;;;;;3.41;74.26;100793.50;1816908;79;21137;-60
